Online Now
Guests 2
Members   0

24/7 FSX Server
IP: 71.135.74.145
@ KSEA until 9/25/20



Information and tools for flight simulation use only - NOT for real avaition

File Flight Plans Here

KSEA 241053Z 17012G18KT 10SM FEW020 BKN032 BKN045 16/12 A2987 RMK AO2 SLP120 T01560122KSEA 240903Z 2409/2512 19012G18KT P6SM VCSH OVC040 TEMPO 2409/2412 5SM -SHRA FM241200 19012KT 6SM -SHRA OVC025 FM242200 20014G22KT P6SM -SHRA BKN040 FM250400 19012KT P6SM -SHRA BKN050
Aviation Digital Data Service (ADDS)



Other FSX servers